Time;durP1;ratioP1;P1;durP2;ratioP2;P2;SDS_P1;SDS_P2;PMS_P1;PMS_P2;Temp;Humidity;BMP_temperature;BMP_pressure;BME280_temperature;BME280_humidity;BME280_pressure;Samples;Min_cycle;Max_cycle;Signal;HPM_P1;HPM_P2
2023/05/13 00:00:22;;;;;;;8.43;5.10;;;;;;;;;;5058893;28;20016;-73
2023/05/13 00:02:47;;;;;;;7.38;5.38;;;;;;;;;;5040426;28;20284;-73
2023/05/13 00:05:13;;;;;;;6.87;5.03;;;;;;;;;;5040968;28;20027;-72
2023/05/13 00:07:38;;;;;;;8.05;4.93;;;;;;;;;;5040520;28;20353;-73
2023/05/13 00:10:03;;;;;;;7.57;4.97;;;;;;;;;;5058168;28;20032;-73
2023/05/13 00:12:30;;;;;;;6.65;5.03;;;;;;;;;;5058253;28;20098;-72
2023/05/13 00:14:55;;;;;;;6.63;5.10;;;;;;;;;;5058353;28;20029;-73
2023/05/13 00:17:20;;;;;;;10.13;4.88;;;;;;;;;;5040823;28;20444;-73
2023/05/13 00:19:45;;;;;;;8.80;4.93;;;;;;;;;;5058041;28;20029;-73
2023/05/13 00:22:11;;;;;;;8.90;5.47;;;;;;;;;;5057680;28;20399;-73
2023/05/13 00:24:36;;;;;;;9.93;5.13;;;;;;;;;;5039020;28;20028;-73
2023/05/13 00:27:01;;;;;;;9.75;4.80;;;;;;;;;;5057115;28;20107;-73
2023/05/13 00:29:26;;;;;;;5.93;4.77;;;;;;;;;;5056991;28;20052;-72
2023/05/13 00:31:51;;;;;;;10.45;5.25;;;;;;;;;;5056835;28;20250;-72
2023/05/13 00:34:18;;;;;;;11.23;5.23;;;;;;;;;;5038967;28;20118;-73
2023/05/13 00:36:43;;;;;;;7.68;4.95;;;;;;;;;;5038815;28;20286;-73
2023/05/13 00:39:10;;;;;;;6.93;4.70;;;;;;;;;;5056563;28;20052;-72
2023/05/13 00:41:35;;;;;;;8.07;4.47;;;;;;;;;;5038920;28;20025;-74
2023/05/13 00:44:00;;;;;;;6.30;4.97;;;;;;;;;;5056616;28;20021;-73
2023/05/13 00:46:29;;;;;;;7.67;4.67;;;;;;;;;;5056217;28;20021;-73
2023/05/13 00:48:55;;;;;;;9.50;5.15;;;;;;;;;;5055583;28;20349;-73
2023/05/13 00:51:20;;;;;;;8.80;4.80;;;;;;;;;;5056062;28;20061;-73
2023/05/13 00:53:46;;;;;;;6.03;5.07;;;;;;;;;;5038236;28;20265;-74
2023/05/13 00:56:11;;;;;;;6.22;4.57;;;;;;;;;;5056616;28;20025;-72
2023/05/13 00:58:36;;;;;;;6.30;4.87;;;;;;;;;;5055073;28;20047;-71
2023/05/13 01:01:14;;;;;;;6.50;4.45;;;;;;;;;;5055140;28;20293;-72
2023/05/13 01:04:06;;;;;;;9.70;4.95;;;;;;;;;;5055410;28;20504;-73
2023/05/13 01:06:52;;;;;;;6.07;4.50;;;;;;;;;;5057422;28;20036;-72
2023/05/13 01:09:39;;;;;;;7.53;4.68;;;;;;;;;;5057454;28;20088;-72
2023/05/13 01:12:11;;;;;;;6.55;4.80;;;;;;;;;;5039655;28;20075;-72
2023/05/13 01:14:44;;;;;;;6.68;4.88;;;;;;;;;;5039693;28;20150;-73
2023/05/13 01:17:17;;;;;;;6.80;4.80;;;;;;;;;;5058009;28;20025;-73
2023/05/13 01:19:52;;;;;;;8.37;5.10;;;;;;;;;;5057460;28;20037;-73
2023/05/13 01:22:17;;;;;;;7.63;4.72;;;;;;;;;;5056997;28;20289;-72
2023/05/13 01:24:42;;;;;;;7.85;4.80;;;;;;;;;;5056863;28;20021;-73
2023/05/13 01:27:08;;;;;;;7.97;4.53;;;;;;;;;;5056712;28;20115;-72
2023/05/13 01:29:34;;;;;;;8.75;4.72;;;;;;;;;;5056749;28;20286;-74
2023/05/13 01:31:59;;;;;;;7.78;4.82;;;;;;;;;;5056876;28;20021;-73
2023/05/13 01:34:26;;;;;;;8.15;4.80;;;;;;;;;;5056592;28;20083;-72
2023/05/13 01:36:51;;;;;;;6.90;5.20;;;;;;;;;;5057065;28;20028;-73
2023/05/13 01:39:18;;;;;;;5.80;4.70;;;;;;;;;;5057236;28;20479;-73
2023/05/13 01:41:44;;;;;;;7.15;4.60;;;;;;;;;;5056118;28;20028;-74
2023/05/13 01:44:09;;;;;;;15.07;5.13;;;;;;;;;;5056383;28;20037;-72
2023/05/13 01:46:37;;;;;;;5.97;4.72;;;;;;;;;;5056347;28;20079;-73
2023/05/13 01:49:02;;;;;;;8.50;5.05;;;;;;;;;;5056745;28;20052;-71
2023/05/13 01:51:27;;;;;;;6.68;4.50;;;;;;;;;;5056028;28;20495;-72
2023/05/13 01:53:53;;;;;;;6.22;4.47;;;;;;;;;;5038328;28;20020;-74
2023/05/13 01:56:18;;;;;;;6.23;4.83;;;;;;;;;;5056056;28;20063;-72
2023/05/13 01:58:43;;;;;;;6.37;4.90;;;;;;;;;;5056277;28;20253;-73
2023/05/13 02:01:08;;;;;;;7.53;4.83;;;;;;;;;;5056584;28;20303;-73
2023/05/13 02:03:34;;;;;;;7.60;5.10;;;;;;;;;;5056404;28;20274;-73
2023/05/13 02:05:59;;;;;;;7.35;4.43;;;;;;;;;;5055323;28;20025;-73
2023/05/13 02:08:26;;;;;;;8.20;5.20;;;;;;;;;;5055205;28;20029;-73
2023/05/13 02:10:58;;;;;;;6.45;4.70;;;;;;;;;;5055619;28;20258;-74
2023/05/13 02:13:25;;;;;;;7.28;4.93;;;;;;;;;;5038563;28;20091;-74
2023/05/13 02:15:50;;;;;;;6.55;4.63;;;;;;;;;;5055512;28;20078;-73
2023/05/13 02:18:16;;;;;;;8.63;4.85;;;;;;;;;;5054964;28;20050;-73
2023/05/13 02:20:41;;;;;;;7.70;4.60;;;;;;;;;;5055177;28;20032;-73
2023/05/13 02:23:06;;;;;;;6.87;4.60;;;;;;;;;;5054915;28;20484;-74
2023/05/13 02:25:32;;;;;;;9.82;4.80;;;;;;;;;;5055517;28;20764;-74
2023/05/13 02:27:58;;;;;;;12.90;5.07;;;;;;;;;;5057007;28;20112;-72
2023/05/13 02:30:25;;;;;;;6.97;4.63;;;;;;;;;;5058312;28;20108;-73
2023/05/13 02:32:55;;;;;;;9.05;4.70;;;;;;;;;;5057802;28;20021;-74
2023/05/13 02:35:21;;;;;;;6.68;4.03;;;;;;;;;;5057478;28;20024;-73
2023/05/13 02:37:46;;;;;;;6.90;4.88;;;;;;;;;;5040094;28;20024;-73
2023/05/13 02:40:12;;;;;;;6.20;4.45;;;;;;;;;;5056936;28;20377;-73
2023/05/13 02:42:37;;;;;;;7.55;4.72;;;;;;;;;;5056631;28;20032;-73
2023/05/13 02:45:02;;;;;;;7.32;4.68;;;;;;;;;;5057194;28;20032;-73
2023/05/13 02:47:28;;;;;;;6.50;4.38;;;;;;;;;;5057730;28;20029;-72
2023/05/13 02:49:55;;;;;;;5.93;4.20;;;;;;;;;;5038827;28;20036;-72
2023/05/13 02:52:20;;;;;;;11.52;4.43;;;;;;;;;;5056456;28;20741;-72
2023/05/13 02:54:45;;;;;;;6.57;4.43;;;;;;;;;;5056396;28;20040;-74
2023/05/13 02:57:11;;;;;;;6.63;4.60;;;;;;;;;;5056390;28;20071;-73
2023/05/13 02:59:36;;;;;;;6.60;4.40;;;;;;;;;;5056522;28;20246;-73
2023/05/13 03:02:01;;;;;;;9.77;4.93;;;;;;;;;;5056217;28;20336;-73
2023/05/13 03:04:26;;;;;;;8.93;4.77;;;;;;;;;;5038087;28;20265;-71
2023/05/13 03:06:51;;;;;;;8.93;4.40;;;;;;;;;;5055842;28;20285;-72
2023/05/13 03:09:17;;;;;;;8.25;4.35;;;;;;;;;;5056187;28;20265;-73
2023/05/13 03:11:42;;;;;;;6.28;4.60;;;;;;;;;;5037949;28;20028;-72
2023/05/13 03:14:07;;;;;;;6.22;4.22;;;;;;;;;;5041536;28;20032;-73
2023/05/13 03:16:32;;;;;;;7.77;5.00;;;;;;;;;;5059735;28;20071;-73
2023/05/13 03:18:58;;;;;;;6.53;4.50;;;;;;;;;;5059419;28;20261;-72
2023/05/13 03:21:23;;;;;;;7.83;4.73;;;;;;;;;;5041987;28;20258;-73
2023/05/13 03:23:48;;;;;;;5.95;4.45;;;;;;;;;;5059728;28;20269;-72
2023/05/13 03:26:13;;;;;;;6.90;4.30;;;;;;;;;;5059232;28;20032;-73
2023/05/13 03:28:39;;;;;;;6.43;3.95;;;;;;;;;;5041477;28;20277;-74
2023/05/13 03:31:04;;;;;;;5.50;3.93;;;;;;;;;;5059343;28;20053;-72
2023/05/13 03:33:29;;;;;;;5.53;4.05;;;;;;;;;;5041445;28;20261;-73
2023/05/13 03:35:54;;;;;;;8.20;4.65;;;;;;;;;;5041491;28;20083;-73
2023/05/13 03:38:20;;;;;;;7.40;4.50;;;;;;;;;;5041619;28;20096;-73
2023/05/13 03:40:45;;;;;;;6.80;4.17;;;;;;;;;;5041052;28;20625;-72
2023/05/13 03:43:11;;;;;;;5.45;3.72;;;;;;;;;;5058467;28;20792;-73
2023/05/13 03:45:36;;;;;;;5.03;3.70;;;;;;;;;;5058999;28;20021;-72
2023/05/13 03:48:01;;;;;;;8.97;4.20;;;;;;;;;;5058485;28;20033;-73
2023/05/13 03:50:26;;;;;;;5.90;3.87;;;;;;;;;;5058500;28;20254;-73
2023/05/13 03:52:51;;;;;;;5.23;3.70;;;;;;;;;;5058161;28;20258;-73
2023/05/13 03:55:17;;;;;;;11.33;3.97;;;;;;;;;;5058361;28;20289;-73
2023/05/13 03:57:46;;;;;;;9.30;4.10;;;;;;;;;;5040886;28;20266;-73
2023/05/13 04:00:12;;;;;;;6.25;4.00;;;;;;;;;;5040045;28;20051;-73
2023/05/13 04:02:37;;;;;;;9.95;3.83;;;;;;;;;;5058031;28;20056;-73
2023/05/13 04:05:04;;;;;;;5.13;3.57;;;;;;;;;;5058542;28;20032;-72
2023/05/13 04:07:30;;;;;;;6.95;3.90;;;;;;;;;;5058236;28;20348;-72
2023/05/13 04:09:55;;;;;;;8.47;3.73;;;;;;;;;;5040435;28;20504;-73
2023/05/13 04:12:20;;;;;;;5.57;3.70;;;;;;;;;;5040673;28;20629;-74
2023/05/13 04:14:45;;;;;;;5.97;4.10;;;;;;;;;;5058653;28;20254;-74
2023/05/13 04:17:10;;;;;;;6.00;3.65;;;;;;;;;;5040661;28;20760;-74
2023/05/13 04:19:36;;;;;;;5.80;4.07;;;;;;;;;;5058185;28;20167;-73
2023/05/13 04:22:01;;;;;;;4.73;3.70;;;;;;;;;;5057836;28;20302;-73
2023/05/13 04:24:26;;;;;;;5.03;3.87;;;;;;;;;;5056630;28;20258;-72
2023/05/13 04:26:51;;;;;;;5.40;3.70;;;;;;;;;;5058419;28;20250;-73
2023/05/13 04:29:16;;;;;;;6.30;4.07;;;;;;;;;;5039974;28;20335;-72
2023/05/13 04:31:43;;;;;;;7.65;4.07;;;;;;;;;;5057890;28;20036;-74
2023/05/13 04:34:08;;;;;;;5.13;3.60;;;;;;;;;;5057744;28;20025;-73
2023/05/13 04:36:33;;;;;;;8.37;3.83;;;;;;;;;;5058159;28;20024;-73
2023/05/13 04:38:59;;;;;;;4.83;3.83;;;;;;;;;;5058167;28;20254;-73
2023/05/13 04:41:24;;;;;;;5.97;4.15;;;;;;;;;;5039403;28;20269;-72
2023/05/13 04:43:49;;;;;;;5.20;3.67;;;;;;;;;;5057505;28;20033;-73
2023/05/13 04:46:15;;;;;;;5.75;3.90;;;;;;;;;;5057948;28;20029;-73
2023/05/13 04:48:40;;;;;;;7.15;3.92;;;;;;;;;;5057299;28;20021;-73
2023/05/13 04:51:05;;;;;;;7.28;3.80;;;;;;;;;;5057499;28;20052;-73
2023/05/13 04:53:30;;;;;;;16.27;4.07;;;;;;;;;;5057459;28;20021;-74
2023/05/13 04:55:59;;;;;;;5.28;3.83;;;;;;;;;;5056966;28;20316;-74
2023/05/13 04:58:26;;;;;;;6.00;4.30;;;;;;;;;;5056925;28;20052;-73
2023/05/13 05:00:51;;;;;;;6.70;4.13;;;;;;;;;;5056451;28;20075;-72
2023/05/13 05:03:16;;;;;;;5.40;3.93;;;;;;;;;;5056893;28;20435;-72
2023/05/13 05:05:42;;;;;;;5.93;3.58;;;;;;;;;;5056560;28;20275;-74
2023/05/13 05:08:07;;;;;;;7.18;3.88;;;;;;;;;;5056674;28;20121;-73
2023/05/13 05:10:32;;;;;;;4.88;3.45;;;;;;;;;;5056715;28;20025;-72
2023/05/13 05:12:58;;;;;;;7.13;3.63;;;;;;;;;;5057457;28;20033;-73
2023/05/13 05:15:23;;;;;;;8.03;3.70;;;;;;;;;;5057261;28;20031;-73
2023/05/13 05:17:48;;;;;;;5.10;3.40;;;;;;;;;;5039577;28;20345;-73
2023/05/13 05:20:13;;;;;;;5.70;3.40;;;;;;;;;;5056853;28;20021;-74
2023/05/13 05:22:40;;;;;;;6.00;3.83;;;;;;;;;;5057312;28;20029;-74
2023/05/13 05:25:06;;;;;;;8.05;4.20;;;;;;;;;;5056752;28;20078;-73
2023/05/13 05:27:31;;;;;;;8.07;3.63;;;;;;;;;;5056533;28;20029;-73
2023/05/13 05:29:56;;;;;;;4.07;3.30;;;;;;;;;;5057068;28;20087;-73
2023/05/13 05:32:22;;;;;;;4.77;3.40;;;;;;;;;;5038511;28;20258;-71
2023/05/13 05:34:47;;;;;;;4.75;3.78;;;;;;;;;;5057297;28;20258;-73
2023/05/13 05:37:12;;;;;;;5.95;3.50;;;;;;;;;;5039424;28;20031;-73
2023/05/13 05:39:39;;;;;;;5.80;3.77;;;;;;;;;;5056360;28;20086;-73
2023/05/13 05:42:06;;;;;;;6.28;3.58;;;;;;;;;;5037885;28;20669;-73
2023/05/13 05:44:31;;;;;;;5.95;3.60;;;;;;;;;;5055219;28;20025;-73
2023/05/13 05:46:56;;;;;;;6.82;3.50;;;;;;;;;;5055186;28;20017;-73
2023/05/13 05:49:21;;;;;;;7.47;3.27;;;;;;;;;;5036831;28;20033;-74
2023/05/13 05:51:47;;;;;;;4.93;3.27;;;;;;;;;;5054650;28;20261;-73
2023/05/13 05:54:12;;;;;;;8.90;3.30;;;;;;;;;;5038023;28;20277;-74
2023/05/13 05:56:37;;;;;;;4.60;3.27;;;;;;;;;;5055687;28;20258;-73
2023/05/13 05:59:02;;;;;;;10.30;3.20;;;;;;;;;;5038672;28;20284;-73
2023/05/13 06:01:32;;;;;;;5.88;3.58;;;;;;;;;;5056537;28;20266;-75
2023/05/13 06:03:58;;;;;;;5.70;3.40;;;;;;;;;;5056191;28;20540;-74
2023/05/13 06:06:23;;;;;;;6.63;3.60;;;;;;;;;;5037031;28;20097;-74
2023/05/13 06:08:48;;;;;;;5.15;3.60;;;;;;;;;;5054825;28;20037;-73
2023/05/13 06:11:13;;;;;;;6.00;3.50;;;;;;;;;;5057520;28;20110;-76
2023/05/13 06:13:38;;;;;;;7.47;3.17;;;;;;;;;;5053639;28;20253;-75
2023/05/13 06:16:04;;;;;;;6.10;3.37;;;;;;;;;;5053135;28;20266;-75
2023/05/13 06:18:29;;;;;;;5.07;3.10;;;;;;;;;;5035382;28;20250;-77
2023/05/13 06:20:54;;;;;;;6.10;3.20;;;;;;;;;;5064578;28;20029;-79
2023/05/13 06:23:20;;;;;;;6.55;3.60;;;;;;;;;;5049513;28;20300;-78
2023/05/13 06:25:45;;;;;;;4.90;3.17;;;;;;;;;;5064630;28;20051;-79
2023/05/13 06:28:11;;;;;;;4.05;3.10;;;;;;;;;;5063279;28;20032;-78
2023/05/13 06:30:36;;;;;;;6.38;3.03;;;;;;;;;;5067694;28;20028;-79
2023/05/13 06:33:02;;;;;;;4.35;3.15;;;;;;;;;;5067914;28;20025;-78
2023/05/13 06:35:27;;;;;;;5.75;3.25;;;;;;;;;;5065636;28;20119;-81
2023/05/13 06:37:52;;;;;;;5.53;3.53;;;;;;;;;;5042068;28;20491;-79
2023/05/13 06:40:17;;;;;;;5.03;3.33;;;;;;;;;;5057269;28;20032;-77
2023/05/13 06:42:43;;;;;;;6.23;3.30;;;;;;;;;;5053631;28;20389;-79
2023/05/13 06:45:08;;;;;;;4.27;2.97;;;;;;;;;;5053154;28;20348;-76
2023/05/13 06:47:34;;;;;;;5.22;3.03;;;;;;;;;;5052082;28;20297;-76
2023/05/13 06:50:00;;;;;;;5.50;2.70;;;;;;;;;;5052636;28;20075;-77
2023/05/13 06:52:25;;;;;;;3.45;2.70;;;;;;;;;;5052603;28;20078;-77
2023/05/13 06:54:50;;;;;;;4.90;3.07;;;;;;;;;;5035568;28;20503;-77
2023/05/13 06:57:15;;;;;;;3.40;2.60;;;;;;;;;;5058883;28;20637;-77
2023/05/13 06:59:41;;;;;;;4.73;2.70;;;;;;;;;;5054058;28;20745;-79
2023/05/13 07:02:08;;;;;;;3.15;2.40;;;;;;;;;;5054237;28;20696;-76
2023/05/13 07:04:34;;;;;;;5.22;2.45;;;;;;;;;;5053070;28;20028;-76
2023/05/13 07:06:59;;;;;;;3.58;2.55;;;;;;;;;;5053056;28;20396;-76
2023/05/13 07:09:24;;;;;;;3.40;2.30;;;;;;;;;;5053000;28;20067;-76
2023/05/13 07:11:49;;;;;;;3.50;2.13;;;;;;;;;;5053389;28;20503;-76
2023/05/13 07:14:15;;;;;;;4.60;2.50;;;;;;;;;;5054603;28;20032;-77
2023/05/13 07:16:40;;;;;;;3.53;2.42;;;;;;;;;;5053219;28;20262;-75
2023/05/13 07:19:06;;;;;;;3.60;2.10;;;;;;;;;;5052952;28;20598;-75
2023/05/13 07:21:31;;;;;;;3.13;2.08;;;;;;;;;;5036214;28;20812;-78
2023/05/13 07:23:56;;;;;;;3.03;2.00;;;;;;;;;;5061178;28;20035;-77
2023/05/13 07:26:21;;;;;;;4.13;2.33;;;;;;;;;;5061171;28;20289;-78
2023/05/13 07:28:47;;;;;;;3.53;2.50;;;;;;;;;;5060222;28;20250;-78
2023/05/13 07:31:12;;;;;;;5.10;2.35;;;;;;;;;;5061750;28;20496;-79
2023/05/13 07:33:37;;;;;;;2.40;1.88;;;;;;;;;;5043514;28;20194;-78
2023/05/13 07:36:03;;;;;;;2.50;2.10;;;;;;;;;;5060695;28;20083;-79
2023/05/13 07:38:28;;;;;;;2.58;1.98;;;;;;;;;;5063145;28;20075;-79
2023/05/13 07:40:53;;;;;;;3.17;1.80;;;;;;;;;;5055308;28;20100;-80
2023/05/13 07:43:22;;;;;;;3.45;2.53;;;;;;;;;;5054451;28;20317;-76
2023/05/13 07:45:49;;;;;;;4.00;2.13;;;;;;;;;;5054870;28;20048;-78
2023/05/13 07:48:16;;;;;;;5.03;2.00;;;;;;;;;;5036665;28;20071;-76
2023/05/13 07:50:42;;;;;;;3.38;1.92;;;;;;;;;;5054601;28;20025;-82
2023/05/13 07:53:07;;;;;;;2.17;1.70;;;;;;;;;;5055668;28;20071;-77
2023/05/13 07:55:32;;;;;;;2.70;2.10;;;;;;;;;;5052784;28;20048;-77
2023/05/13 07:57:57;;;;;;;3.13;2.27;;;;;;;;;;5053067;28;20261;-78
2023/05/13 08:00:23;;;;;;;5.95;2.08;;;;;;;;;;5056264;28;20307;-77
2023/05/13 08:02:48;;;;;;;3.20;2.20;;;;;;;;;;5054675;28;20392;-78
2023/05/13 08:05:13;;;;;;;4.33;1.90;;;;;;;;;;5054677;28;20025;-76
2023/05/13 08:07:38;;;;;;;3.47;1.90;;;;;;;;;;5054379;28;20262;-84
2023/05/13 08:10:04;;;;;;;3.33;1.88;;;;;;;;;;5043068;28;20309;-79
2023/05/13 08:12:29;;;;;;;4.32;2.22;;;;;;;;;;5070140;28;20021;-79
2023/05/13 08:14:55;;;;;;;2.47;2.03;;;;;;;;;;5071859;28;20111;-77
2023/05/13 08:17:21;;;;;;;3.00;2.10;;;;;;;;;;5071721;28;20028;-79
2023/05/13 08:19:46;;;;;;;3.72;2.17;;;;;;;;;;5071765;28;20264;-79
2023/05/13 08:22:11;;;;;;;4.25;2.38;;;;;;;;;;5071328;28;20077;-78
2023/05/13 08:24:39;;;;;;;3.50;2.27;;;;;;;;;;5070440;28;20025;-78
2023/05/13 08:27:04;;;;;;;4.60;1.90;;;;;;;;;;5071089;28;20266;-78
2023/05/13 08:29:29;;;;;;;4.95;2.17;;;;;;;;;;5050952;28;20434;-78
2023/05/13 08:31:55;;;;;;;2.77;2.40;;;;;;;;;;5062792;28;20024;-77
2023/05/13 08:34:20;;;;;;;2.10;1.88;;;;;;;;;;5067249;28;20337;-78
2023/05/13 08:36:45;;;;;;;3.17;2.20;;;;;;;;;;5071366;28;20036;-78
2023/05/13 08:39:11;;;;;;;7.15;2.25;;;;;;;;;;5065848;28;20029;-78
2023/05/13 08:41:36;;;;;;;3.83;2.00;;;;;;;;;;5061154;28;20025;-78
2023/05/13 08:44:05;;;;;;;5.68;2.20;;;;;;;;;;5061640;28;20048;-78
2023/05/13 08:46:32;;;;;;;3.13;2.10;;;;;;;;;;5060530;28;20528;-78
2023/05/13 08:48:58;;;;;;;6.57;2.40;;;;;;;;;;5060468;28;20048;-78
2023/05/13 08:51:24;;;;;;;5.50;2.00;;;;;;;;;;5065761;28;20025;-79
2023/05/13 08:53:51;;;;;;;12.65;2.33;;;;;;;;;;5045156;28;20021;-79
2023/05/13 08:56:16;;;;;;;5.43;2.03;;;;;;;;;;5063260;28;20031;-78
2023/05/13 08:58:41;;;;;;;3.40;2.20;;;;;;;;;;5061548;28;20024;-77
2023/05/13 09:01:06;;;;;;;3.03;2.20;;;;;;;;;;5044630;28;20264;-78
2023/05/13 09:03:34;;;;;;;3.50;1.90;;;;;;;;;;5062855;28;20028;-77
2023/05/13 09:06:00;;;;;;;5.45;2.20;;;;;;;;;;5041386;28;20060;-78
2023/05/13 09:08:25;;;;;;;6.43;2.08;;;;;;;;;;5042686;28;20055;-77
2023/05/13 09:10:52;;;;;;;3.35;2.20;;;;;;;;;;5056735;28;20506;-77
2023/05/13 09:13:17;;;;;;;5.55;2.40;;;;;;;;;;5060849;28;20017;-79
2023/05/13 09:15:43;;;;;;;4.43;2.60;;;;;;;;;;5040436;28;20115;-77
2023/05/13 09:18:09;;;;;;;5.40;2.53;;;;;;;;;;5059175;28;20036;-77
2023/05/13 09:20:34;;;;;;;3.42;2.10;;;;;;;;;;5042209;28;20108;-77
2023/05/13 09:23:07;;;;;;;5.63;2.70;;;;;;;;;;5057704;28;20560;-78
2023/05/13 09:25:32;;;;;;;6.75;2.25;;;;;;;;;;5055041;28;20472;-77
2023/05/13 09:28:01;;;;;;;7.57;2.42;;;;;;;;;;5037132;28;20057;-77
2023/05/13 09:30:28;;;;;;;5.57;2.40;;;;;;;;;;5054521;28;20017;-77
2023/05/13 09:33:06;;;;;;;5.97;2.58;;;;;;;;;;5054246;28;20075;-76
2023/05/13 09:35:32;;;;;;;3.05;2.30;;;;;;;;;;5054220;28;20060;-77
2023/05/13 09:37:58;;;;;;;4.05;2.35;;;;;;;;;;5054236;28;20572;-77
2023/05/13 09:40:23;;;;;;;3.08;2.40;;;;;;;;;;5054880;28;20096;-77
2023/05/13 09:42:48;;;;;;;2.65;2.20;;;;;;;;;;5055260;28;20036;-77
2023/05/13 09:45:15;;;;;;;5.78;2.70;;;;;;;;;;5054974;28;20028;-79
2023/05/13 09:47:41;;;;;;;3.85;2.45;;;;;;;;;;5054090;28;20119;-76
2023/05/13 09:50:08;;;;;;;3.47;2.20;;;;;;;;;;5054199;28;20504;-79
2023/05/13 09:52:35;;;;;;;6.35;2.30;;;;;;;;;;5054285;28;20047;-77
2023/05/13 09:55:03;;;;;;;3.53;2.17;;;;;;;;;;5054288;28;20017;-77
2023/05/13 09:57:32;;;;;;;6.70;2.47;;;;;;;;;;5054102;28;20674;-76
2023/05/13 10:00:06;;;;;;;2.83;2.35;;;;;;;;;;5035710;28;20028;-77
2023/05/13 10:02:33;;;;;;;4.38;2.38;;;;;;;;;;5053984;28;20094;-75
2023/05/13 10:05:02;;;;;;;5.03;2.13;;;;;;;;;;5053926;28;20187;-79
2023/05/13 10:07:27;;;;;;;4.72;2.30;;;;;;;;;;5053782;28;20527;-78
2023/05/13 10:09:59;;;;;;;3.53;2.28;;;;;;;;;;5056523;28;20028;-78
2023/05/13 10:12:25;;;;;;;4.88;2.60;;;;;;;;;;5053937;28;20032;-77
2023/05/13 10:14:52;;;;;;;3.17;2.20;;;;;;;;;;5054711;28;20077;-77
2023/05/13 10:17:19;;;;;;;5.55;2.60;;;;;;;;;;5053236;28;20028;-77
2023/05/13 10:19:47;;;;;;;2.95;2.42;;;;;;;;;;5035741;28;20115;-77
2023/05/13 10:22:13;;;;;;;3.15;2.05;;;;;;;;;;5052428;28;20043;-76
2023/05/13 10:24:39;;;;;;;5.72;2.22;;;;;;;;;;5036128;28;20115;-77
2023/05/13 10:27:06;;;;;;;3.65;2.50;;;;;;;;;;5053703;28;20481;-76
2023/05/13 10:29:32;;;;;;;6.75;2.50;;;;;;;;;;5053112;28;20025;-77
2023/05/13 10:31:58;;;;;;;2.95;2.20;;;;;;;;;;5061699;28;20395;-79
2023/05/13 10:34:25;;;;;;;5.57;2.28;;;;;;;;;;5061549;28;20392;-82
2023/05/13 10:37:38;;;;;;;2.72;2.25;;;;;;;;;;5061905;28;20033;-84
2023/05/13 10:40:19;;;;;;;4.75;2.38;;;;;;;;;;5043451;28;20028;-79
2023/05/13 10:43:13;;;;;;;4.47;2.30;;;;;;;;;;5058128;28;20104;-79
2023/05/13 10:45:38;;;;;;;4.37;2.40;;;;;;;;;;5047711;28;20048;-79
2023/05/13 10:48:09;;;;;;;3.13;2.30;;;;;;;;;;5059362;28;20335;-80
2023/05/13 10:50:37;;;;;;;2.58;1.92;;;;;;;;;;5038421;28;20025;-76
2023/05/13 10:53:08;;;;;;;5.38;2.08;;;;;;;;;;5040974;28;20373;-82
2023/05/13 10:55:42;;;;;;;4.95;2.10;;;;;;;;;;5038899;28;20443;-78
2023/05/13 10:58:14;;;;;;;;;;;;;;;;;;5057783;28;20033;-80
2023/05/13 11:00:42;;;;;;;4.90;2.33;;;;;;;;;;5038712;28;19916;-78
2023/05/13 11:03:08;;;;;;;4.03;2.00;;;;;;;;;;5054571;28;20025;-78
2023/05/13 11:05:33;;;;;;;5.28;2.30;;;;;;;;;;5056575;28;20121;-78
2023/05/13 11:07:59;;;;;;;10.00;2.20;;;;;;;;;;5056712;28;20072;-79
2023/05/13 11:10:28;;;;;;;3.90;2.33;;;;;;;;;;5057934;28;20258;-80
2023/05/13 11:13:08;;;;;;;3.75;2.10;;;;;;;;;;5062091;28;20028;-81
2023/05/13 11:15:44;;;;;;;2.47;2.00;;;;;;;;;;5062015;28;20068;-79
2023/05/13 11:18:11;;;;;;;3.90;2.30;;;;;;;;;;5057251;28;20043;-80
2023/05/13 11:20:37;;;;;;;7.65;2.00;;;;;;;;;;5059289;28;20029;-78
2023/05/13 11:23:02;;;;;;;5.30;2.10;;;;;;;;;;5039815;28;20091;-79
2023/05/13 11:25:27;;;;;;;5.38;2.90;;;;;;;;;;5060557;28;20033;-78
2023/05/13 11:27:53;;;;;;;6.27;3.10;;;;;;;;;;5061143;28;20365;-78
2023/05/13 11:30:26;;;;;;;4.57;2.40;;;;;;;;;;5045283;28;20277;-79
2023/05/13 11:32:56;;;;;;;5.73;2.27;;;;;;;;;;5063058;28;20254;-79
2023/05/13 11:35:24;;;;;;;3.10;2.13;;;;;;;;;;5049193;28;20025;-79
2023/05/13 11:37:50;;;;;;;5.03;2.20;;;;;;;;;;5062959;28;20039;-79
2023/05/13 11:40:33;;;;;;;3.83;2.17;;;;;;;;;;5064211;28;20383;-81
2023/05/13 11:42:59;;;;;;;2.67;1.90;;;;;;;;;;5068170;28;20031;-79
2023/05/13 11:45:26;;;;;;;3.38;1.80;;;;;;;;;;5067952;28;20028;-80
2023/05/13 11:47:52;;;;;;;3.85;1.98;;;;;;;;;;5067009;28;20542;-79
2023/05/13 11:50:19;;;;;;;2.42;1.63;;;;;;;;;;5048956;28;20119;-79
2023/05/13 11:52:50;;;;;;;4.60;1.60;;;;;;;;;;5068188;28;20029;-79
2023/05/13 11:55:34;;;;;;;3.55;1.70;;;;;;;;;;5067705;28;20017;-80
2023/05/13 11:58:00;;;;;;;2.05;1.70;;;;;;;;;;5049041;28;20025;-80
2023/05/13 12:00:30;;;;;;;2.55;1.88;;;;;;;;;;5048944;28;20075;-80
2023/05/13 12:02:56;;;;;;;2.63;1.85;;;;;;;;;;5049487;28;20021;-80
2023/05/13 12:05:22;;;;;;;2.17;1.55;;;;;;;;;;5066018;28;20049;-80
2023/05/13 12:07:48;;;;;;;1.67;1.50;;;;;;;;;;5067686;28;20029;-80
2023/05/13 12:10:13;;;;;;;3.50;1.90;;;;;;;;;;5068450;28;20044;-80
2023/05/13 12:12:41;;;;;;;2.38;1.50;;;;;;;;;;5069067;28;20068;-80
2023/05/13 12:15:09;;;;;;;2.70;1.80;;;;;;;;;;5068694;28;20018;-79
2023/05/13 12:17:35;;;;;;;1.80;1.33;;;;;;;;;;5068279;28;20029;-79
2023/05/13 12:20:07;;;;;;;2.47;1.70;;;;;;;;;;5067999;28;20503;-79
2023/05/13 12:22:33;;;;;;;2.28;1.60;;;;;;;;;;5066773;28;20095;-80
2023/05/13 12:25:00;;;;;;;2.83;1.65;;;;;;;;;;5065169;28;20035;-80
2023/05/13 12:27:26;;;;;;;1.75;1.52;;;;;;;;;;5064534;28;20029;-80
2023/05/13 12:29:55;;;;;;;1.98;1.50;;;;;;;;;;5061764;28;20365;-80
2023/05/13 12:32:20;;;;;;;2.03;1.40;;;;;;;;;;5064283;28;20107;-79
2023/05/13 12:34:49;;;;;;;2.08;1.45;;;;;;;;;;5062808;28;20075;-82
2023/05/13 12:37:14;;;;;;;6.63;2.15;;;;;;;;;;5063444;28;20100;-77
2023/05/13 12:39:41;;;;;;;7.67;1.93;;;;;;;;;;5059145;28;20486;-77
2023/05/13 12:42:14;;;;;;;7.28;1.80;;;;;;;;;;5058784;28;20304;-78
2023/05/13 12:44:41;;;;;;;1.50;1.30;;;;;;;;;;5040273;28;20033;-78
2023/05/13 12:47:09;;;;;;;2.58;1.60;;;;;;;;;;5058179;28;20021;-78
2023/05/13 12:49:34;;;;;;;2.50;1.50;;;;;;;;;;5059829;28;20029;-79
2023/05/13 12:52:00;;;;;;;2.83;1.65;;;;;;;;;;5057345;28;20037;-78
2023/05/13 12:54:25;;;;;;;3.10;1.70;;;;;;;;;;5058262;28;20032;-78
2023/05/13 12:56:51;;;;;;;1.95;1.52;;;;;;;;;;5041467;28;20021;-78
2023/05/13 12:59:17;;;;;;;2.80;1.83;;;;;;;;;;5060499;28;20112;-80
2023/05/13 13:01:43;;;;;;;2.35;1.52;;;;;;;;;;5058532;28;20036;-78
2023/05/13 13:04:08;;;;;;;2.83;1.50;;;;;;;;;;5058639;28;20037;-79
2023/05/13 13:06:33;;;;;;;3.17;1.70;;;;;;;;;;5059595;28;20434;-77
2023/05/13 13:08:58;;;;;;;1.77;1.53;;;;;;;;;;5039671;28;20752;-79
2023/05/13 13:11:24;;;;;;;2.13;1.53;;;;;;;;;;5039197;28;20664;-78
2023/05/13 13:13:49;;;;;;;2.43;1.80;;;;;;;;;;5057008;28;20595;-78
2023/05/13 13:16:14;;;;;;;5.20;1.75;;;;;;;;;;5038924;28;20644;-78
2023/05/13 13:18:40;;;;;;;4.00;1.60;;;;;;;;;;5056188;28;20028;-78
2023/05/13 13:21:06;;;;;;;1.75;1.60;;;;;;;;;;5059003;28;20273;-78
2023/05/13 13:23:32;;;;;;;3.50;1.75;;;;;;;;;;5059311;28;20017;-78
2023/05/13 13:25:58;;;;;;;2.42;2.00;;;;;;;;;;5058436;28;20357;-77
2023/05/13 13:28:26;;;;;;;4.07;1.92;;;;;;;;;;5039171;28;20458;-78
2023/05/13 13:30:52;;;;;;;2.03;1.60;;;;;;;;;;5057687;28;20491;-79
2023/05/13 13:33:17;;;;;;;2.78;1.85;;;;;;;;;;5059851;28;20033;-78
2023/05/13 13:35:43;;;;;;;4.13;1.98;;;;;;;;;;5058917;28;20029;-77
2023/05/13 13:38:09;;;;;;;6.43;2.10;;;;;;;;;;5040381;28;20016;-79
2023/05/13 13:40:35;;;;;;;2.72;1.95;;;;;;;;;;5059388;28;20499;-79
2023/05/13 13:43:09;;;;;;;3.13;1.90;;;;;;;;;;5059275;28;20032;-79
2023/05/13 13:45:35;;;;;;;5.05;1.80;;;;;;;;;;5056684;28;20017;-78
2023/05/13 13:48:01;;;;;;;2.35;1.90;;;;;;;;;;5056638;28;20373;-78
2023/05/13 13:50:27;;;;;;;2.90;1.98;;;;;;;;;;5055764;28;20029;-77
2023/05/13 13:52:52;;;;;;;2.25;1.80;;;;;;;;;;5037964;28;20028;-79
2023/05/13 13:55:22;;;;;;;1.73;1.50;;;;;;;;;;5057866;28;20043;-78
2023/05/13 13:57:47;;;;;;;3.40;2.00;;;;;;;;;;5041594;28;20064;-78
2023/05/13 14:00:14;;;;;;;6.15;1.90;;;;;;;;;;5057669;28;20055;-77
2023/05/13 14:02:40;;;;;;;2.00;1.80;;;;;;;;;;5056554;28;20088;-77
2023/05/13 14:05:06;;;;;;;2.60;1.83;;;;;;;;;;5040866;28;20028;-79
2023/05/13 14:07:31;;;;;;;2.45;2.10;;;;;;;;;;5067541;28;20031;-78
2023/05/13 14:09:56;;;;;;;2.15;1.80;;;;;;;;;;5049277;28;20024;-78
2023/05/13 14:12:21;;;;;;;3.33;1.70;;;;;;;;;;5058690;28;20047;-78
2023/05/13 14:14:47;;;;;;;3.40;1.90;;;;;;;;;;5062036;28;20262;-79
2023/05/13 14:17:12;;;;;;;3.70;2.00;;;;;;;;;;5061895;28;20292;-78
2023/05/13 14:19:37;;;;;;;3.13;1.93;;;;;;;;;;5043760;28;20266;-78
2023/05/13 14:22:02;;;;;;;2.83;2.17;;;;;;;;;;5065365;28;20266;-79
2023/05/13 14:24:28;;;;;;;2.25;1.88;;;;;;;;;;5045291;28;20253;-79
2023/05/13 14:26:53;;;;;;;4.57;2.00;;;;;;;;;;5057829;28;20040;-79
2023/05/13 14:29:19;;;;;;;3.63;2.00;;;;;;;;;;5058019;28;20269;-78
2023/05/13 14:31:44;;;;;;;2.38;1.92;;;;;;;;;;5057759;28;20024;-79
2023/05/13 14:34:09;;;;;;;3.10;2.10;;;;;;;;;;5055301;28;20112;-79
2023/05/13 14:36:34;;;;;;;4.83;2.27;;;;;;;;;;5055655;28;20293;-78
2023/05/13 14:39:00;;;;;;;4.03;2.10;;;;;;;;;;5054882;28;20262;-78